Time;durP1;ratioP1;P1;durP2;ratioP2;P2;SDS_P1;SDS_P2;PMS_P1;PMS_P2;Temp;Humidity;BMP_temperature;BMP_pressure;BME280_temperature;BME280_humidity;BME280_pressure;Samples;Min_cycle;Max_cycle;Signal;HPM_P1;HPM_P2
2023/06/24 00:00:15;;;;;;;;;9.67;9.00;;;;;;;;5024181;28;52880;-60
2023/06/24 00:02:43;;;;;;;;;7.00;7.00;;;;;;;;5023111;28;51535;-59
2023/06/24 00:05:09;;;;;;;;;7.00;7.00;;;;;;;;5025169;28;51349;-59
2023/06/24 00:07:43;;;;;;;;;6.33;6.33;;;;;;;;5025284;28;53537;-60
2023/06/24 00:10:08;;;;;;;;;7.00;6.33;;;;;;;;5019996;28;52125;-59
2023/06/24 00:12:34;;;;;;;;;7.00;6.67;;;;;;;;5025276;28;51166;-60
2023/06/24 00:14:59;;;;;;;;;17.00;15.50;;;;;;;;5024243;28;51082;-59
2023/06/24 00:17:25;;;;;;;;;8.67;8.00;;;;;;;;5023446;28;51346;-59
2023/06/24 00:19:54;;;;;;;;;7.33;7.00;;;;;;;;5022097;28;52944;-58
2023/06/24 00:22:19;;;;;;;;;9.00;9.00;;;;;;;;5023172;28;51484;-60
2023/06/24 00:24:44;;;;;;;;;6.33;6.33;;;;;;;;5023508;28;51170;-60
2023/06/24 00:27:10;;;;;;;;;7.00;7.00;;;;;;;;5022775;28;51102;-58
2023/06/24 00:29:35;;;;;;;;;8.00;8.00;;;;;;;;5023028;28;51953;-60
2023/06/24 00:32:00;;;;;;;;;5.33;5.00;;;;;;;;5020742;28;51393;-61
2023/06/24 00:34:26;;;;;;;;;6.33;6.33;;;;;;;;5023485;28;53132;-59
2023/06/24 00:36:51;;;;;;;;;7.00;7.00;;;;;;;;5022775;28;52112;-59
2023/06/24 00:39:16;;;;;;;;;7.33;6.67;;;;;;;;5022915;28;53382;-59
2023/06/24 00:41:42;;;;;;;;;4.33;4.33;;;;;;;;5023125;28;53676;-60
2023/06/24 00:44:07;;;;;;;;;6.00;6.00;;;;;;;;5025103;28;51183;-60
2023/06/24 00:46:33;;;;;;;;;7.67;7.00;;;;;;;;5023426;28;51199;-59
2023/06/24 00:48:58;;;;;;;;;6.33;6.00;;;;;;;;5022557;28;52949;-59
2023/06/24 00:51:30;;;;;;;;;2.00;2.00;;;;;;;;5025013;28;51190;-58
2023/06/24 00:53:55;;;;;;;;;7.00;7.00;;;;;;;;5021802;28;51465;-60
2023/06/24 00:56:21;;;;;;;;;7.00;5.67;;;;;;;;5025888;28;51564;-59
2023/06/24 00:58:47;;;;;;;;;5.00;5.00;;;;;;;;5025663;28;51806;-59
2023/06/24 01:01:12;;;;;;;;;5.33;4.67;;;;;;;;5019886;28;51343;-59
2023/06/24 01:03:38;;;;;;;;;7.33;7.00;;;;;;;;5019969;28;51195;-60
2023/06/24 01:06:03;;;;;;;;;5.33;5.33;;;;;;;;5023897;28;53477;-59
2023/06/24 01:08:28;;;;;;;;;10.00;10.00;;;;;;;;5022720;28;53543;-60
2023/06/24 01:10:56;;;;;;;;;6.67;5.33;;;;;;;;5023397;28;51343;-60
2023/06/24 01:13:22;;;;;;;;;9.67;9.67;;;;;;;;5023325;28;51219;-59
2023/06/24 01:15:47;;;;;;;;;10.33;10.33;;;;;;;;5026256;28;51302;-60
2023/06/24 01:18:12;;;;;;;;;7.67;7.67;;;;;;;;5025629;28;51288;-60
2023/06/24 01:20:40;;;;;;;;;2.25;2.25;;;;;;;;5026250;28;51112;-59
2023/06/24 01:23:25;;;;;;;;;6.00;6.00;;;;;;;;5022372;28;51242;-59
2023/06/24 01:25:59;;;;;;;;;5.00;5.00;;;;;;;;5025275;28;51477;-60
2023/06/24 01:28:42;;;;;;;;;8.67;8.67;;;;;;;;5023787;28;52031;-60
2023/06/24 01:31:07;;;;;;;;;6.00;6.00;;;;;;;;5010861;28;51267;-59
2023/06/24 01:33:36;;;;;;;;;5.67;5.67;;;;;;;;5026568;28;51206;-59
2023/06/24 01:36:02;;;;;;;;;6.00;6.00;;;;;;;;5025795;28;51429;-58
2023/06/24 01:38:34;;;;;;;;;9.00;9.00;;;;;;;;5025679;28;52807;-60
2023/06/24 01:41:02;;;;;;;;;7.00;7.00;;;;;;;;5024868;28;51123;-58
2023/06/24 01:43:28;;;;;;;;;8.00;7.33;;;;;;;;5024304;28;53737;-58
2023/06/24 01:45:54;;;;;;;;;7.33;7.33;;;;;;;;5022854;28;51215;-59
2023/06/24 01:48:23;;;;;;;;;8.00;8.00;;;;;;;;5021606;28;52204;-60
2023/06/24 01:50:54;;;;;;;;;10.00;8.00;;;;;;;;5024684;28;51325;-59
2023/06/24 01:53:20;;;;;;;;;7.33;7.33;;;;;;;;5026014;28;51313;-59
2023/06/24 01:55:46;;;;;;;;;6.00;6.00;;;;;;;;5024995;28;51132;-59
2023/06/24 01:58:12;;;;;;;;;7.00;6.00;;;;;;;;5023501;28;51717;-60
2023/06/24 02:00:44;;;;;;;;;7.33;5.33;;;;;;;;5025187;28;51639;-59
2023/06/24 02:03:09;;;;;;;;;7.67;7.00;;;;;;;;5024986;28;53263;-59
2023/06/24 02:05:36;;;;;;;;;6.33;6.00;;;;;;;;5025407;28;51484;-59
2023/06/24 02:08:02;;;;;;;;;5.33;5.00;;;;;;;;5039341;28;53805;-59
2023/06/24 02:10:28;;;;;;;;;7.33;6.00;;;;;;;;5025311;28;51172;-58
2023/06/24 02:12:55;;;;;;;;;8.33;7.33;;;;;;;;5024886;28;51120;-59
2023/06/24 02:15:21;;;;;;;;;5.00;5.00;;;;;;;;5024987;28;51348;-60
2023/06/24 02:17:48;;;;;;;;;6.67;6.67;;;;;;;;5023893;28;52260;-61
2023/06/24 02:20:14;;;;;;;;;9.00;8.00;;;;;;;;5024370;28;51138;-59
2023/06/24 02:22:40;;;;;;;;;7.00;6.00;;;;;;;;5024181;28;51132;-58
2023/06/24 02:25:06;;;;;;;;;7.00;6.33;;;;;;;;5025395;28;52188;-60
2023/06/24 02:27:32;;;;;;;;;9.33;7.00;;;;;;;;5024397;28;51150;-60
2023/06/24 02:29:58;;;;;;;;;6.00;6.00;;;;;;;;5024061;28;51331;-60
2023/06/24 02:32:23;;;;;;;;;5.33;5.00;;;;;;;;5024693;28;51223;-60
2023/06/24 02:34:48;;;;;;;;;7.67;7.00;;;;;;;;5024271;28;52092;-60
2023/06/24 02:37:14;;;;;;;;;7.67;7.00;;;;;;;;5023965;28;51762;-60
2023/06/24 02:39:43;;;;;;;;;9.33;8.67;;;;;;;;5006881;28;51169;-58
2023/06/24 02:42:09;;;;;;;;;6.00;5.33;;;;;;;;5024713;28;51274;-60
2023/06/24 02:44:34;;;;;;;;;7.67;7.00;;;;;;;;5025365;28;51310;-59
2023/06/24 02:47:00;;;;;;;;;6.67;6.67;;;;;;;;5022821;28;52110;-60
2023/06/24 02:49:25;;;;;;;;;7.33;6.67;;;;;;;;5024792;28;51248;-59
2023/06/24 02:51:50;;;;;;;;;7.00;7.00;;;;;;;;5015127;28;51279;-60
2023/06/24 02:54:16;;;;;;;;;7.33;6.33;;;;;;;;5023273;28;51481;-60
2023/06/24 02:56:44;;;;;;;;;8.33;7.00;;;;;;;;5023124;28;51188;-58
2023/06/24 02:59:09;;;;;;;;;7.67;7.67;;;;;;;;5024611;28;51229;-60
2023/06/24 03:01:38;;;;;;;;;6.00;6.00;;;;;;;;5024216;28;51338;-60
2023/06/24 03:04:05;;;;;;;;;9.00;8.67;;;;;;;;5023053;28;51293;-58
2023/06/24 03:06:31;;;;;;;;;9.00;8.00;;;;;;;;5023580;28;54731;-60
2023/06/24 03:08:57;;;;;;;;;8.33;8.00;;;;;;;;5022454;28;51470;-61
2023/06/24 03:11:22;;;;;;;;;7.00;7.00;;;;;;;;5024023;28;51218;-60
2023/06/24 03:13:47;;;;;;;;;6.00;6.00;;;;;;;;5025133;28;51287;-60
2023/06/24 03:16:12;;;;;;;;;8.33;6.67;;;;;;;;5024458;28;51717;-59
2023/06/24 03:18:40;;;;;;;;;7.67;7.00;;;;;;;;5022999;28;51131;-59
2023/06/24 03:21:06;;;;;;;;;7.00;6.33;;;;;;;;5023736;28;51377;-59
2023/06/24 03:23:31;;;;;;;;;7.33;7.33;;;;;;;;5023988;28;51083;-59
2023/06/24 03:25:56;;;;;;;;;8.00;7.67;;;;;;;;5022876;28;53628;-58
2023/06/24 03:28:21;;;;;;;;;8.33;7.67;;;;;;;;5023692;28;51242;-59
2023/06/24 03:30:47;;;;;;;;;8.00;6.00;;;;;;;;5024456;28;51455;-58
2023/06/24 03:33:16;;;;;;;;;8.00;8.00;;;;;;;;5019785;28;53056;-60
2023/06/24 03:35:42;;;;;;;;;7.00;6.00;;;;;;;;5021528;28;52821;-60
2023/06/24 03:38:07;;;;;;;;;10.00;10.00;;;;;;;;5024717;28;51102;-60
2023/06/24 03:40:32;;;;;;;;;6.33;6.00;;;;;;;;5025487;28;51163;-60
2023/06/24 03:42:58;;;;;;;;;12.67;12.00;;;;;;;;5021525;28;51321;-60
2023/06/24 03:45:23;;;;;;;;;5.33;5.00;;;;;;;;5016811;28;53104;-58
2023/06/24 03:47:48;;;;;;;;;7.00;6.00;;;;;;;;5016550;28;51113;-58
2023/06/24 03:50:13;;;;;;;;;7.33;6.67;;;;;;;;5014527;28;51024;-59
2023/06/24 03:52:38;;;;;;;;;8.00;8.00;;;;;;;;5016331;28;53656;-58
2023/06/24 03:55:04;;;;;;;;;7.00;6.33;;;;;;;;5020120;28;51259;-59
2023/06/24 03:57:29;;;;;;;;;8.00;7.00;;;;;;;;5017648;28;51328;-59
2023/06/24 03:59:55;;;;;;;;;5.00;5.00;;;;;;;;5018918;28;51098;-59
2023/06/24 04:02:21;;;;;;;;;8.00;7.00;;;;;;;;5018829;28;51488;-59
2023/06/24 04:04:50;;;;;;;;;6.67;6.33;;;;;;;;5018384;28;51673;-59
2023/06/24 04:07:27;;;;;;;;;7.00;6.33;;;;;;;;5016063;28;51470;-60
2023/06/24 04:09:54;;;;;;;;;6.00;6.00;;;;;;;;5015581;28;51435;-59
2023/06/24 04:12:19;;;;;;;;;6.00;6.00;;;;;;;;5015212;28;51348;-59
2023/06/24 04:14:44;;;;;;;;;7.33;6.00;;;;;;;;5020326;28;53561;-58
2023/06/24 04:17:09;;;;;;;;;6.67;6.00;;;;;;;;5017594;28;51306;-59
2023/06/24 04:19:35;;;;;;;;;5.67;5.00;;;;;;;;5015806;28;51118;-59
2023/06/24 04:22:00;;;;;;;;;8.00;7.00;;;;;;;;5019776;28;52730;-59
2023/06/24 04:24:25;;;;;;;;;6.67;6.67;;;;;;;;5018757;28;53638;-59
2023/06/24 04:26:50;;;;;;;;;4.67;4.67;;;;;;;;5019831;28;51410;-63
2023/06/24 04:29:15;;;;;;;;;7.67;7.00;;;;;;;;5016693;28;53754;-60
2023/06/24 04:31:41;;;;;;;;;8.00;7.00;;;;;;;;5015007;28;51319;-59
2023/06/24 04:34:06;;;;;;;;;8.33;7.67;;;;;;;;5017683;28;51672;-59
2023/06/24 04:36:31;;;;;;;;;8.00;7.00;;;;;;;;5018398;28;51087;-60
2023/06/24 04:38:56;;;;;;;;;4.33;4.33;;;;;;;;5025369;28;51477;-59
2023/06/24 04:41:22;;;;;;;;;6.00;6.00;;;;;;;;5016189;28;51294;-60
2023/06/24 04:43:47;;;;;;;;;5.00;5.00;;;;;;;;5015599;28;52261;-60
2023/06/24 04:46:12;;;;;;;;;9.00;8.00;;;;;;;;5017167;28;51264;-60
2023/06/24 04:48:37;;;;;;;;;8.00;7.67;;;;;;;;5016327;28;51403;-60
2023/06/24 04:51:02;;;;;;;;;5.00;5.00;;;;;;;;5015966;28;51492;-60
2023/06/24 04:53:28;;;;;;;;;7.00;7.00;;;;;;;;5013850;28;51218;-60
2023/06/24 04:55:53;;;;;;;;;8.67;7.00;;;;;;;;5015545;28;52123;-60
2023/06/24 04:58:18;;;;;;;;;6.67;6.33;;;;;;;;5017131;28;53343;-61
2023/06/24 05:00:43;;;;;;;;;7.00;7.00;;;;;;;;5013392;28;51075;-60
2023/06/24 05:03:08;;;;;;;;;6.00;6.00;;;;;;;;5016112;28;51380;-60
2023/06/24 05:05:33;;;;;;;;;6.67;6.00;;;;;;;;5015849;28;51149;-59
2023/06/24 05:07:59;;;;;;;;;8.67;6.67;;;;;;;;5015219;28;51792;-60
2023/06/24 05:10:24;;;;;;;;;7.67;7.67;;;;;;;;5018736;28;51126;-60
2023/06/24 05:12:49;;;;;;;;;6.00;6.00;;;;;;;;5017190;28;51659;-60
2023/06/24 05:15:14;;;;;;;;;7.00;6.67;;;;;;;;5018967;28;51551;-60
2023/06/24 05:17:40;;;;;;;;;9.67;8.00;;;;;;;;5013700;28;53798;-58
2023/06/24 05:20:06;;;;;;;;;7.00;7.00;;;;;;;;5018687;28;53549;-60
2023/06/24 05:22:31;;;;;;;;;6.67;6.67;;;;;;;;5018932;28;51179;-60
2023/06/24 05:24:56;;;;;;;;;8.00;8.00;;;;;;;;5018140;28;51172;-60
2023/06/24 05:27:21;;;;;;;;;7.67;7.67;;;;;;;;5018420;28;53528;-60
2023/06/24 05:29:47;;;;;;;;;14.67;14.00;;;;;;;;5020477;28;51351;-60
2023/06/24 05:32:12;;;;;;;;;6.67;6.00;;;;;;;;5025190;28;52190;-60
2023/06/24 05:34:37;;;;;;;;;6.33;6.33;;;;;;;;5025128;28;53847;-59
2023/06/24 05:37:03;;;;;;;;;6.67;6.00;;;;;;;;5023989;28;51429;-59
2023/06/24 05:39:28;;;;;;;;;5.67;5.67;;;;;;;;5023089;28;51463;-59
2023/06/24 05:41:53;;;;;;;;;6.00;6.00;;;;;;;;5025410;28;51182;-59
2023/06/24 05:44:18;;;;;;;;;7.00;7.00;;;;;;;;5026067;28;53649;-60
2023/06/24 05:46:45;;;;;;;;;7.67;6.33;;;;;;;;5024232;28;51019;-59
2023/06/24 05:49:10;;;;;;;;;5.00;5.00;;;;;;;;5023451;28;51286;-59
2023/06/24 05:51:35;;;;;;;;;6.67;6.67;;;;;;;;5021500;28;51877;-59
2023/06/24 05:54:00;;;;;;;;;7.33;5.33;;;;;;;;5024776;28;53557;-58
2023/06/24 05:56:26;;;;;;;;;7.33;7.33;;;;;;;;5024326;28;51322;-58
2023/06/24 05:58:51;;;;;;;;;6.33;6.33;;;;;;;;5025478;28;51243;-59
2023/06/24 06:01:16;;;;;;;;;7.00;7.00;;;;;;;;5018290;28;51818;-58
2023/06/24 06:03:41;;;;;;;;;6.33;6.33;;;;;;;;5022530;28;51947;-59
2023/06/24 06:06:07;;;;;;;;;7.67;7.67;;;;;;;;5023830;28;51512;-59
2023/06/24 06:08:32;;;;;;;;;6.67;6.33;;;;;;;;5023846;28;51203;-59
2023/06/24 06:10:57;;;;;;;;;7.67;7.00;;;;;;;;5023782;28;51115;-59
2023/06/24 06:13:22;;;;;;;;;7.67;7.00;;;;;;;;5023644;28;51209;-60
2023/06/24 06:15:48;;;;;;;;;7.00;7.00;;;;;;;;5025521;28;51277;-60
2023/06/24 06:18:13;;;;;;;;;7.00;6.33;;;;;;;;5025087;28;51234;-60
2023/06/24 06:20:38;;;;;;;;;6.33;6.00;;;;;;;;5024781;28;52358;-59
2023/06/24 06:23:03;;;;;;;;;5.33;5.33;;;;;;;;5023848;28;51173;-59
2023/06/24 06:25:28;;;;;;;;;7.33;7.33;;;;;;;;5024200;28;51269;-60
2023/06/24 06:27:54;;;;;;;;;7.00;7.00;;;;;;;;5024867;28;53554;-59
2023/06/24 06:30:19;;;;;;;;;7.00;5.67;;;;;;;;5022733;28;51675;-58
2023/06/24 06:32:44;;;;;;;;;4.33;4.00;;;;;;;;5021922;28;53712;-59
2023/06/24 06:35:09;;;;;;;;;6.00;5.67;;;;;;;;5023589;28;51702;-59
2023/06/24 06:37:35;;;;;;;;;4.33;4.00;;;;;;;;5023235;28;51326;-64
2023/06/24 06:40:00;;;;;;;;;5.33;5.33;;;;;;;;5023858;28;51135;-59
2023/06/24 06:42:25;;;;;;;;;5.33;5.00;;;;;;;;5022287;28;51271;-59
2023/06/24 06:44:50;;;;;;;;;5.00;5.00;;;;;;;;5024425;28;53173;-60
2023/06/24 06:47:15;;;;;;;;;4.67;4.67;;;;;;;;5024144;28;51184;-59
2023/06/24 06:49:41;;;;;;;;;5.67;5.67;;;;;;;;5024036;28;51685;-59
2023/06/24 06:52:06;;;;;;;;;4.33;4.00;;;;;;;;5024786;28;51094;-59
2023/06/24 06:54:31;;;;;;;;;5.33;4.00;;;;;;;;5025091;28;51343;-59
2023/06/24 06:57:00;;;;;;;;;4.33;4.00;;;;;;;;5023303;28;51269;-59
2023/06/24 06:59:25;;;;;;;;;5.67;5.00;;;;;;;;5019264;28;51149;-59
2023/06/24 07:01:50;;;;;;;;;5.33;5.00;;;;;;;;5023715;28;51270;-59
2023/06/24 07:04:15;;;;;;;;;5.67;4.67;;;;;;;;5023451;28;51275;-60
2023/06/24 07:06:41;;;;;;;;;6.00;6.00;;;;;;;;5026268;28;51353;-60
2023/06/24 07:09:07;;;;;;;;;3.00;3.00;;;;;;;;5027722;28;53444;-60
2023/06/24 07:11:32;;;;;;;;;5.00;5.00;;;;;;;;5027758;28;51119;-58
2023/06/24 07:13:58;;;;;;;;;6.33;5.67;;;;;;;;5028060;28;51174;-60
2023/06/24 07:16:23;;;;;;;;;6.00;5.67;;;;;;;;5027607;28;51136;-60
2023/06/24 07:18:48;;;;;;;;;7.00;6.00;;;;;;;;5028410;28;51127;-60
2023/06/24 07:21:13;;;;;;;;;6.00;6.00;;;;;;;;5024805;28;53606;-59
2023/06/24 07:23:38;;;;;;;;;6.67;6.67;;;;;;;;5027648;28;53821;-59
2023/06/24 07:26:04;;;;;;;;;4.00;4.00;;;;;;;;5027039;28;51124;-59
2023/06/24 07:28:29;;;;;;;;;4.00;4.00;;;;;;;;5027250;28;51060;-60
2023/06/24 07:30:54;;;;;;;;;3.33;3.33;;;;;;;;5025904;28;51203;-59
2023/06/24 07:33:19;;;;;;;;;5.00;5.00;;;;;;;;5027527;28;51353;-60
2023/06/24 07:35:44;;;;;;;;;4.00;4.00;;;;;;;;5024725;28;51203;-59
2023/06/24 07:38:10;;;;;;;;;5.00;4.00;;;;;;;;5026001;28;51967;-59
2023/06/24 07:40:35;;;;;;;;;6.00;6.00;;;;;;;;5027837;28;51196;-58
2023/06/24 07:43:00;;;;;;;;;8.00;7.00;;;;;;;;5025235;28;51293;-59
2023/06/24 07:45:25;;;;;;;;;5.00;5.00;;;;;;;;5024957;28;51282;-61
2023/06/24 07:47:51;;;;;;;;;5.67;4.67;;;;;;;;5027256;28;51801;-59
2023/06/24 07:50:16;;;;;;;;;6.00;6.00;;;;;;;;5027167;28;51229;-59
2023/06/24 07:52:41;;;;;;;;;6.67;5.67;;;;;;;;5025761;28;51386;-60
2023/06/24 07:55:06;;;;;;;;;6.33;6.33;;;;;;;;5023101;28;51471;-59
2023/06/24 07:57:32;;;;;;;;;4.67;4.67;;;;;;;;5026499;28;53433;-59
2023/06/24 07:59:57;;;;;;;;;6.00;6.00;;;;;;;;5027160;28;51121;-61
2023/06/24 08:02:24;;;;;;;;;4.67;4.67;;;;;;;;5024810;28;51052;-60
2023/06/24 08:04:49;;;;;;;;;9.00;9.00;;;;;;;;5025943;28;51369;-59
2023/06/24 08:07:15;;;;;;;;;5.00;5.00;;;;;;;;5024217;28;51404;-59
2023/06/24 08:09:40;;;;;;;;;3.00;3.00;;;;;;;;5025642;28;53445;-59
2023/06/24 08:12:05;;;;;;;;;6.33;5.33;;;;;;;;5025905;28;53318;-59
2023/06/24 08:14:30;;;;;;;;;6.67;6.33;;;;;;;;5027140;28;52186;-58
2023/06/24 08:16:55;;;;;;;;;6.67;5.00;;;;;;;;5024690;28;51242;-60
2023/06/24 08:19:21;;;;;;;;;5.33;5.00;;;;;;;;5025442;28;51368;-58
2023/06/24 08:21:46;;;;;;;;;7.00;6.00;;;;;;;;5026437;28;51135;-58
2023/06/24 08:24:11;;;;;;;;;5.67;5.33;;;;;;;;5027189;28;51463;-61
2023/06/24 08:26:36;;;;;;;;;7.00;6.67;;;;;;;;5024799;28;53434;-56
2023/06/24 08:29:03;;;;;;;;;4.67;4.67;;;;;;;;5020800;28;53621;-59
2023/06/24 08:31:28;;;;;;;;;6.67;5.67;;;;;;;;5020586;28;52750;-61
2023/06/24 08:33:54;;;;;;;;;7.67;7.00;;;;;;;;5017767;28;51472;-60
2023/06/24 08:36:21;;;;;;;;;3.33;3.33;;;;;;;;5022725;28;51125;-60
2023/06/24 08:38:46;;;;;;;;;3.67;3.33;;;;;;;;5025088;28;51227;-60
2023/06/24 08:41:12;;;;;;;;;5.67;5.67;;;;;;;;5023943;28;51344;-60
2023/06/24 08:43:38;;;;;;;;;7.00;6.00;;;;;;;;5026339;28;51220;-60
2023/06/24 08:46:04;;;;;;;;;6.33;5.33;;;;;;;;5023659;28;52156;-60
2023/06/24 08:48:29;;;;;;;;;5.33;5.33;;;;;;;;5024421;28;51132;-60
2023/06/24 08:50:57;;;;;;;;;5.33;5.33;;;;;;;;5023283;28;51340;-60
2023/06/24 08:53:25;;;;;;;;;5.00;5.00;;;;;;;;5025326;28;51338;-60
2023/06/24 08:55:53;;;;;;;;;5.33;5.33;;;;;;;;5022691;28;53168;-59
2023/06/24 08:58:18;;;;;;;;;3.00;3.00;;;;;;;;5025029;28;51095;-59
2023/06/24 09:00:43;;;;;;;;;5.00;4.00;;;;;;;;5025341;28;51131;-59
2023/06/24 09:03:08;;;;;;;;;4.33;4.33;;;;;;;;5024715;28;53528;-64
2023/06/24 09:05:33;;;;;;;;;4.67;4.00;;;;;;;;5023802;28;52198;-64
2023/06/24 09:07:59;;;;;;;;;5.00;5.00;;;;;;;;5024764;28;51174;-63
2023/06/24 09:10:35;;;;;;;;;7.00;7.00;;;;;;;;5025551;28;51128;-64
2023/06/24 09:13:00;;;;;;;;;9.00;8.33;;;;;;;;5017048;28;53778;-64
2023/06/24 09:15:29;;;;;;;;;6.00;6.00;;;;;;;;5011030;28;53967;-64
2023/06/24 09:17:54;;;;;;;;;6.00;6.00;;;;;;;;5018573;28;51148;-65
2023/06/24 09:20:21;;;;;;;;;7.00;7.00;;;;;;;;5016941;28;51551;-64
2023/06/24 09:22:46;;;;;;;;;9.67;8.67;;;;;;;;5015748;28;51451;-65
2023/06/24 09:25:17;;;;;;;;;17.33;14.33;;;;;;;;5016985;28;51197;-64
2023/06/24 09:27:46;;;;;;;;;6.33;6.33;;;;;;;;5016450;28;51225;-64
2023/06/24 09:30:19;;;;;;;;;5.67;5.67;;;;;;;;5017693;28;51515;-63
2023/06/24 09:32:44;;;;;;;;;4.67;4.67;;;;;;;;5015293;28;51124;-62
2023/06/24 09:35:09;;;;;;;;;6.33;5.67;;;;;;;;5016186;28;51135;-63
2023/06/24 09:37:35;;;;;;;;;6.67;6.67;;;;;;;;5014990;28;51340;-63
2023/06/24 09:40:02;;;;;;;;;7.00;7.00;;;;;;;;5018385;28;51178;-62
2023/06/24 09:42:27;;;;;;;;;4.67;4.67;;;;;;;;5011470;28;51477;-64
2023/06/24 09:44:55;;;;;;;;;11.33;9.67;;;;;;;;5019136;28;52875;-63
2023/06/24 09:47:24;;;;;;;;;8.00;7.67;;;;;;;;5019015;28;53326;-63
2023/06/24 09:49:50;;;;;;;;;13.75;11.50;;;;;;;;5015688;28;51286;-63
2023/06/24 09:52:16;;;;;;;;;9.67;8.33;;;;;;;;5021301;28;51459;-63
2023/06/24 09:54:42;;;;;;;;;8.00;8.00;;;;;;;;5022617;28;53892;-63
2023/06/24 09:57:09;;;;;;;;;5.67;5.67;;;;;;;;5025082;28;51261;-63
2023/06/24 09:59:34;;;;;;;;;7.67;7.67;;;;;;;;5017754;28;51140;-63
2023/06/24 10:02:00;;;;;;;;;9.50;8.75;;;;;;;;5014982;28;51484;-63
2023/06/24 10:04:27;;;;;;;;;11.25;11.00;;;;;;;;5021694;28;52176;-62
2023/06/24 10:06:52;;;;;;;;;11.00;11.00;;;;;;;;5013260;28;51458;-63
2023/06/24 10:09:19;;;;;;;;;8.33;8.33;;;;;;;;5016992;28;51495;-63
2023/06/24 10:11:44;;;;;;;;;9.33;9.00;;;;;;;;5022898;28;51205;-63
2023/06/24 10:14:10;;;;;;;;;9.00;8.00;;;;;;;;5023883;28;53200;-63
2023/06/24 10:16:35;;;;;;;;;8.00;7.00;;;;;;;;5012913;28;51478;-63
2023/06/24 10:19:02;;;;;;;;;6.67;6.67;;;;;;;;5017767;28;51199;-63
2023/06/24 10:21:48;;;;;;;;;11.00;10.00;;;;;;;;5014235;28;51296;-63
2023/06/24 10:24:27;;;;;;;;;8.00;8.00;;;;;;;;5015317;28;51246;-63
2023/06/24 10:26:52;;;;;;;;;10.00;10.00;;;;;;;;5013776;28;51442;-62
2023/06/24 10:29:20;;;;;;;;;9.67;8.33;;;;;;;;5015245;28;53749;-63
2023/06/24 10:31:49;;;;;;;;;8.50;8.25;;;;;;;;5015586;28;51499;-63
2023/06/24 10:34:23;;;;;;;;;14.00;14.00;;;;;;;;5014555;28;53510;-62
2023/06/24 10:36:59;;;;;;;;;6.50;6.50;;;;;;;;5014494;28;51322;-63
2023/06/24 10:39:43;;;;;;;;;11.00;10.00;;;;;;;;5014089;28;51237;-65
2023/06/24 10:42:23;;;;;;;;;9.33;9.00;;;;;;;;5018424;28;51301;-66
2023/06/24 10:44:49;;;;;;;;;20.25;19.50;;;;;;;;5015378;28;51795;-62
2023/06/24 10:47:14;;;;;;;;;18.25;16.25;;;;;;;;5020904;28;51289;-62
2023/06/24 10:49:40;;;;;;;;;9.00;9.00;;;;;;;;5023710;28;51118;-63
2023/06/24 10:52:08;;;;;;;;;8.00;8.00;;;;;;;;5023973;28;51131;-64
2023/06/24 10:54:34;;;;;;;;;17.50;16.50;;;;;;;;5026510;28;51290;-63
2023/06/24 10:57:00;;;;;;;;;13.00;12.00;;;;;;;;5025861;28;51168;-63
2023/06/24 10:59:25;;;;;;;;;9.67;8.67;;;;;;;;5024020;28;51182;-62
2023/06/24 11:01:53;;;;;;;;;8.33;8.33;;;;;;;;5025509;28;53420;-62
2023/06/24 11:04:19;;;;;;;;;10.00;10.00;;;;;;;;5025268;28;52080;-62
2023/06/24 11:06:56;;;;;;;;;9.00;8.67;;;;;;;;5023526;28;51071;-63
2023/06/24 11:09:21;;;;;;;;;10.33;10.00;;;;;;;;5025374;28;51381;-62
2023/06/24 11:11:46;;;;;;;;;7.67;7.67;;;;;;;;5026685;28;51468;-62
2023/06/24 11:14:12;;;;;;;;;17.00;15.00;;;;;;;;5020988;28;51612;-63
2023/06/24 11:16:38;;;;;;;;;5.33;5.33;;;;;;;;5023851;28;51171;-61
2023/06/24 11:19:04;;;;;;;;;10.00;9.67;;;;;;;;5023183;28;51122;-63
2023/06/24 11:21:31;;;;;;;;;10.00;10.00;;;;;;;;5026783;28;51109;-64
2023/06/24 11:23:59;;;;;;;;;10.25;9.75;;;;;;;;5023680;28;53075;-63
2023/06/24 11:26:25;;;;;;;;;10.67;9.00;;;;;;;;5024398;28;52759;-63
2023/06/24 11:28:50;;;;;;;;;9.33;9.00;;;;;;;;5025361;28;51090;-63
2023/06/24 11:31:15;;;;;;;;;9.67;9.67;;;;;;;;5019663;28;51326;-65
2023/06/24 11:33:41;;;;;;;;;16.50;15.00;;;;;;;;5018838;28;51900;-62
2023/06/24 11:36:09;;;;;;;;;11.33;11.33;;;;;;;;5023496;28;51187;-63
2023/06/24 11:38:36;;;;;;;;;10.67;10.67;;;;;;;;5024954;28;53342;-62
2023/06/24 11:41:01;;;;;;;;;11.67;11.33;;;;;;;;5016911;28;51300;-62
2023/06/24 11:43:26;;;;;;;;;12.00;11.33;;;;;;;;5024901;28;51336;-62
2023/06/24 11:45:51;;;;;;;;;11.33;11.33;;;;;;;;5025073;28;51377;-64
2023/06/24 11:48:16;;;;;;;;;10.33;10.33;;;;;;;;5024188;28;51429;-64
2023/06/24 11:50:42;;;;;;;;;9.33;9.33;;;;;;;;5023115;28;51370;-64
2023/06/24 11:53:07;;;;;;;;;12.00;12.00;;;;;;;;5021215;28;51194;-64
2023/06/24 11:55:32;;;;;;;;;10.33;9.67;;;;;;;;5018352;28;52258;-63
2023/06/24 11:58:04;;;;;;;;;14.00;14.00;;;;;;;;5022473;28;51206;-75
2023/06/24 12:00:31;;;;;;;;;12.33;12.33;;;;;;;;5022158;28;52961;-77
2023/06/24 12:02:57;;;;;;;;;11.00;11.00;;;;;;;;5016180;28;53242;-74
2023/06/24 12:05:26;;;;;;;;;10.00;10.00;;;;;;;;5016649;28;51740;-61
2023/06/24 12:07:51;;;;;;;;;9.33;9.33;;;;;;;;5015354;28;51450;-59
2023/06/24 12:10:17;;;;;;;;;15.00;11.67;;;;;;;;5013314;28;54797;-59
2023/06/24 12:12:42;;;;;;;;;16.50;15.75;;;;;;;;5014241;28;51648;-60
2023/06/24 12:15:07;;;;;;;;;9.67;8.67;;;;;;;;5016992;28;51204;-59
2023/06/24 12:17:32;;;;;;;;;14.00;13.00;;;;;;;;5008624;28;51779;-63
2023/06/24 12:19:58;;;;;;;;;10.00;9.67;;;;;;;;5016929;28;51508;-59
2023/06/24 12:22:23;;;;;;;;;10.67;10.67;;;;;;;;5013144;28;51982;-60
2023/06/24 12:24:48;;;;;;;;;11.67;11.33;;;;;;;;5014514;28;52860;-60
2023/06/24 12:27:13;;;;;;;;;10.00;9.25;;;;;;;;5016591;28;51187;-60
2023/06/24 12:29:40;;;;;;;;;11.33;10.00;;;;;;;;5013276;28;51297;-59
2023/06/24 12:32:06;;;;;;;;;14.33;11.00;;;;;;;;5016180;28;51247;-59
2023/06/24 12:34:31;;;;;;;;;16.33;15.00;;;;;;;;5012908;28;51152;-59
2023/06/24 12:36:56;;;;;;;;;9.33;9.33;;;;;;;;5014289;28;51320;-58
2023/06/24 12:39:22;;;;;;;;;12.67;12.67;;;;;;;;5017743;28;51786;-58
2023/06/24 12:41:47;;;;;;;;;8.67;8.00;;;;;;;;5017305;28;51366;-60
2023/06/24 12:44:12;;;;;;;;;7.33;7.33;;;;;;;;5017877;28;51186;-59
2023/06/24 12:46:37;;;;;;;;;11.33;11.33;;;;;;;;5016425;28;51359;-59
2023/06/24 12:49:02;;;;;;;;;13.50;13.50;;;;;;;;5017273;28;53661;-59
2023/06/24 12:51:28;;;;;;;;;10.67;10.00;;;;;;;;5017287;28;51243;-60
2023/06/24 12:53:53;;;;;;;;;12.00;11.00;;;;;;;;5017032;28;51195;-59
2023/06/24 12:56:18;;;;;;;;;10.67;10.67;;;;;;;;5016260;28;51749;-60
2023/06/24 12:58:43;;;;;;;;;13.67;13.33;;;;;;;;5020424;28;51544;-59
2023/06/24 13:01:08;;;;;;;;;10.33;10.00;;;;;;;;5015964;28;51214;-59
2023/06/24 13:03:34;;;;;;;;;7.67;7.00;;;;;;;;5014499;28;51374;-60
2023/06/24 13:05:59;;;;;;;;;13.00;13.00;;;;;;;;5017588;28;53054;-60
2023/06/24 13:08:24;;;;;;;;;10.67;10.33;;;;;;;;5016956;28;51461;-60
2023/06/24 13:10:49;;;;;;;;;11.00;10.33;;;;;;;;5016906;28;51172;-60
2023/06/24 13:13:14;;;;;;;;;12.00;11.67;;;;;;;;5014679;28;52784;-59
2023/06/24 13:15:40;;;;;;;;;12.33;12.00;;;;;;;;5017016;28;51447;-60
2023/06/24 13:18:05;;;;;;;;;16.33;14.67;;;;;;;;5015726;28;53546;-59
2023/06/24 13:20:30;;;;;;;;;12.33;11.33;;;;;;;;5017280;28;52783;-59
2023/06/24 13:22:55;;;;;;;;;9.00;9.00;;;;;;;;5017484;28;51224;-60
2023/06/24 13:25:21;;;;;;;;;13.00;12.00;;;;;;;;5017139;28;51139;-60
2023/06/24 13:27:46;;;;;;;;;13.00;11.33;;;;;;;;5016737;28;52188;-59
2023/06/24 13:30:12;;;;;;;;;11.33;11.33;;;;;;;;5015044;28;51788;-59
2023/06/24 13:32:37;;;;;;;;;14.33;12.00;;;;;;;;5015842;28;53415;-59
2023/06/24 13:35:03;;;;;;;;;14.67;12.67;;;;;;;;5015393;28;51116;-60
2023/06/24 13:37:28;;;;;;;;;17.33;16.00;;;;;;;;5016353;28;51193;-58
2023/06/24 13:39:53;;;;;;;;;8.33;8.33;;;;;;;;5016453;28;53452;-60
2023/06/24 13:42:18;;;;;;;;;10.00;10.00;;;;;;;;5015461;28;51319;-60
2023/06/24 13:44:44;;;;;;;;;11.00;11.00;;;;;;;;5016908;28;51141;-60
2023/06/24 13:47:09;;;;;;;;;12.67;11.67;;;;;;;;5016728;28;53402;-59
2023/06/24 13:49:34;;;;;;;;;22.75;22.75;;;;;;;;5013805;28;52163;-59
2023/06/24 13:52:00;;;;;;;;;10.33;10.33;;;;;;;;5017034;28;51079;-58
2023/06/24 13:54:27;;;;;;;;;10.67;10.00;;;;;;;;5016132;28;51310;-59
2023/06/24 13:56:52;;;;;;;;;9.67;9.67;;;;;;;;5017339;28;51463;-59
2023/06/24 13:59:17;;;;;;;;;10.00;10.00;;;;;;;;5016489;28;51195;-59
2023/06/24 14:01:43;;;;;;;;;11.67;11.67;;;;;;;;5015474;28;51908;-59
2023/06/24 14:04:08;;;;;;;;;13.00;12.00;;;;;;;;5013763;28;51360;-59
2023/06/24 14:06:34;;;;;;;;;10.33;10.00;;;;;;;;5014835;28;53521;-59
2023/06/24 14:08:59;;;;;;;;;13.00;11.00;;;;;;;;5015769;28;51225;-58
2023/06/24 14:11:24;;;;;;;;;17.33;16.00;;;;;;;;5016349;28;53716;-59
2023/06/24 14:13:49;;;;;;;;;12.00;11.67;;;;;;;;5015808;28;51130;-59
2023/06/24 14:16:14;;;;;;;;;14.00;13.25;;;;;;;;5014040;28;51401;-59
2023/06/24 14:18:41;;;;;;;;;9.33;9.33;;;;;;;;5015179;28;52672;-57
2023/06/24 14:21:06;;;;;;;;;12.50;11.00;;;;;;;;5012188;28;51405;-58
2023/06/24 14:23:32;;;;;;;;;14.50;14.00;;;;;;;;5016220;28;51555;-58
2023/06/24 14:25:58;;;;;;;;;12.75;12.75;;;;;;;;5012760;28;53277;-58
2023/06/24 14:28:24;;;;;;;;;10.00;10.00;;;;;;;;5015057;28;52227;-59